VLG5ML LECO-EGLL
Flight info
| Callsign | VLG5ML |
|---|---|
| Flight time | 1h 32m |
| Altitude | 24000 |
| Route | KORAV N728 KORUL/N0437F360 DCT KOLEK/N0439F380 DCT ERCOZ DCT DOMOK DCT ORTAC/N0437F370 DCT VEXEN L980 AVANT DCT HAZEL |
| Aircraft | A320/M-SDE3FGHIRWY/LB1 |
Departure
| Time | 2026-04-26 07:55 |
|---|---|
| Airport | A Coruña Airport (LECO) |
Arrival
| Time | 2026-04-26 09:27 |
|---|---|
| Airport | London Heathrow Airport (EGLL) |
| Time | Latitude | Longitude | Altitude | Speed | Heading |
|---|---|---|---|---|---|
| 2026-04-26 07:20 | 43.30164 | -8.38081 | 337 ft | 0 kts | 327° |
| 2026-04-26 07:45 | 43.30148 | -8.38067 | 335 ft | 4 kts | 332° |
| 2026-04-26 07:45 | 43.30123 | -8.38054 | 337 ft | 4 kts | 354° |
| 2026-04-26 07:45 | 43.30101 | -8.38058 | 337 ft | 1 kts | 31° |
| 2026-04-26 07:50 | 43.30160 | -8.38008 | 338 ft | 9 kts | 31° |
| 2026-04-26 07:50 | 43.30219 | -8.37959 | 340 ft | 11 kts | 31° |
| 2026-04-26 07:50 | 43.30273 | -8.37883 | 339 ft | 8 kts | 88° |
| 2026-04-26 07:50 | 43.30272 | -8.37877 | 340 ft | 0 kts | 101° |
| 2026-04-26 07:51 | 43.30267 | -8.37855 | 341 ft | 8 kts | 113° |
| 2026-04-26 07:52 | 43.30231 | -8.37773 | 337 ft | 12 kts | 116° |
| 2026-04-26 07:52 | 43.30270 | -8.37670 | 338 ft | 17 kts | 31° |
| 2026-04-26 07:52 | 43.30399 | -8.37566 | 337 ft | 26 kts | 31° |
| 2026-04-26 07:52 | 43.30564 | -8.37431 | 350 ft | 29 kts | 31° |
| 2026-04-26 07:53 | 43.30738 | -8.37291 | 348 ft | 30 kts | 31° |
| 2026-04-26 07:53 | 43.30887 | -8.37189 | 350 ft | 19 kts | 5° |
| 2026-04-26 07:53 | 43.30982 | -8.37153 | 337 ft | 10 kts | 62° |
| 2026-04-26 07:53 | 43.30941 | -8.37125 | 351 ft | 8 kts | 206° |
| 2026-04-26 07:54 | 43.30929 | -8.37135 | 347 ft | 4 kts | 211° |
| 2026-04-26 07:54 | 43.30745 | -8.37286 | 348 ft | 66 kts | 210° |
| 2026-04-26 07:54 | 43.30165 | -8.37753 | 351 ft | 124 kts | 211° |
| 2026-04-26 07:54 | 43.29306 | -8.38447 | 485 ft | 152 kts | 210° |
| 2026-04-26 07:55 | 43.28414 | -8.39143 | 1131 ft | 146 kts | 198° |
| 2026-04-26 07:55 | 43.27428 | -8.39267 | 1678 ft | 146 kts | 170° |
| 2026-04-26 07:55 | 43.26468 | -8.38718 | 2064 ft | 152 kts | 140° |
| 2026-04-26 07:55 | 43.25838 | -8.37586 | 2527 ft | 152 kts | 113° |
| 2026-04-26 07:56 | 43.25676 | -8.36141 | 2956 ft | 158 kts | 87° |
| 2026-04-26 07:56 | 43.26071 | -8.34686 | 3269 ft | 174 kts | 54° |
| 2026-04-26 07:56 | 43.27070 | -8.33582 | 3542 ft | 195 kts | 34° |
| 2026-04-26 07:56 | 43.28266 | -8.32563 | 3909 ft | 211 kts | 33° |
| 2026-04-26 07:57 | 43.29568 | -8.31454 | 4274 ft | 226 kts | 33° |
| 2026-04-26 07:57 | 43.30919 | -8.30294 | 4900 ft | 231 kts | 33° |
| 2026-04-26 07:57 | 43.32275 | -8.29124 | 5726 ft | 229 kts | 33° |
| 2026-04-26 07:57 | 43.33588 | -8.27878 | 6520 ft | 232 kts | 45° |
| 2026-04-26 07:58 | 43.34480 | -8.26040 | 7204 ft | 234 kts | 72° |
| 2026-04-26 07:58 | 43.34949 | -8.23844 | 7713 ft | 250 kts | 75° |
| 2026-04-26 07:58 | 43.35439 | -8.21435 | 8079 ft | 274 kts | 75° |
| 2026-04-26 07:58 | 43.36251 | -8.18993 | 8601 ft | 289 kts | 52° |
| 2026-04-26 07:59 | 43.37717 | -8.17079 | 9390 ft | 293 kts | 39° |
| 2026-04-26 07:59 | 43.39293 | -8.15325 | 10152 ft | 297 kts | 38° |
| 2026-04-26 07:59 | 43.40952 | -8.13505 | 10557 ft | 316 kts | 38° |
| 2026-04-26 07:59 | 43.42736 | -8.11558 | 10793 ft | 338 kts | 38° |
| 2026-04-26 08:00 | 43.44606 | -8.09515 | 11312 ft | 347 kts | 38° |
| 2026-04-26 08:00 | 43.46522 | -8.07414 | 11999 ft | 351 kts | 38° |
| 2026-04-26 08:00 | 43.48419 | -8.05327 | 12658 ft | 356 kts | 38° |
| 2026-04-26 08:00 | 43.50364 | -8.03176 | 13377 ft | 359 kts | 38° |
| 2026-04-26 08:01 | 43.52319 | -8.01008 | 14056 ft | 363 kts | 38° |
| 2026-04-26 08:01 | 43.54290 | -7.98816 | 14654 ft | 366 kts | 38° |
| 2026-04-26 08:01 | 43.56283 | -7.96599 | 15231 ft | 371 kts | 38° |
| 2026-04-26 08:01 | 43.58308 | -7.94350 | 15738 ft | 376 kts | 38° |
| 2026-04-26 08:02 | 43.60356 | -7.92076 | 16317 ft | 380 kts | 38° |
| 2026-04-26 08:02 | 43.62425 | -7.89777 | 16876 ft | 384 kts | 38° |
| 2026-04-26 08:02 | 43.64512 | -7.87460 | 17488 ft | 386 kts | 37° |
| 2026-04-26 08:02 | 43.66766 | -7.85415 | 18039 ft | 389 kts | 28° |
| 2026-04-26 08:03 | 43.69129 | -7.83571 | 18604 ft | 393 kts | 28° |
| 2026-04-26 08:03 | 43.71520 | -7.81701 | 19103 ft | 397 kts | 28° |
| 2026-04-26 08:03 | 43.73935 | -7.79808 | 19633 ft | 400 kts | 28° |
| 2026-04-26 08:03 | 43.76360 | -7.77906 | 20147 ft | 403 kts | 28° |
| 2026-04-26 08:04 | 43.78811 | -7.75983 | 20638 ft | 407 kts | 28° |
| 2026-04-26 08:04 | 43.81292 | -7.74033 | 21074 ft | 412 kts | 28° |
| 2026-04-26 08:04 | 43.83793 | -7.72066 | 21574 ft | 415 kts | 28° |
| 2026-04-26 08:04 | 43.86313 | -7.70082 | 22027 ft | 418 kts | 28° |
| 2026-04-26 08:05 | 43.88852 | -7.68083 | 22513 ft | 421 kts | 28° |
| 2026-04-26 08:05 | 43.91407 | -7.66066 | 22966 ft | 424 kts | 28° |
| 2026-04-26 08:05 | 43.93983 | -7.64030 | 23436 ft | 427 kts | 28° |
| 2026-04-26 08:05 | 43.96570 | -7.61986 | 23870 ft | 430 kts | 28° |
| 2026-04-26 08:06 | 43.99180 | -7.59925 | 24277 ft | 433 kts | 28° |
| 2026-04-26 08:06 | 44.01768 | -7.57876 | 24684 ft | 434 kts | 28° |
| 2026-04-26 08:06 | 44.04430 | -7.55764 | 25094 ft | 436 kts | 28° |
| 2026-04-26 08:06 | 44.07075 | -7.53661 | 25487 ft | 439 kts | 28° |
| 2026-04-26 08:07 | 44.09695 | -7.51579 | 25869 ft | 441 kts | 28° |
| 2026-04-26 08:07 | 44.12397 | -7.49428 | 26262 ft | 443 kts | 28° |
| 2026-04-26 08:07 | 44.15079 | -7.47291 | 26637 ft | 445 kts | 28° |
| 2026-04-26 08:07 | 44.17733 | -7.45172 | 27009 ft | 447 kts | 28° |
| 2026-04-26 08:08 | 44.20473 | -7.42985 | 27394 ft | 449 kts | 28° |
| 2026-04-26 08:08 | 44.23156 | -7.40839 | 27763 ft | 451 kts | 28° |
| 2026-04-26 08:08 | 44.25887 | -7.38651 | 28140 ft | 454 kts | 29° |
| 2026-04-26 08:08 | 44.28628 | -7.36453 | 28514 ft | 456 kts | 29° |
| 2026-04-26 08:09 | 44.31386 | -7.34239 | 28891 ft | 458 kts | 29° |
| 2026-04-26 08:09 | 44.34156 | -7.32014 | 29262 ft | 460 kts | 29° |
| 2026-04-26 08:09 | 44.36936 | -7.29778 | 29619 ft | 463 kts | 29° |
| 2026-04-26 08:09 | 44.39731 | -7.27530 | 29996 ft | 465 kts | 28° |
| 2026-04-26 08:10 | 44.42542 | -7.25271 | 30353 ft | 467 kts | 28° |
| 2026-04-26 08:10 | 44.45362 | -7.23005 | 30703 ft | 467 kts | 28° |
| 2026-04-26 08:10 | 44.48171 | -7.20740 | 31140 ft | 466 kts | 29° |
| 2026-04-26 08:10 | 44.50981 | -7.18471 | 31547 ft | 465 kts | 29° |
| 2026-04-26 08:11 | 44.53778 | -7.16209 | 31994 ft | 464 kts | 29° |
| 2026-04-26 08:11 | 44.56572 | -7.13945 | 32461 ft | 462 kts | 29° |
| 2026-04-26 08:11 | 44.59343 | -7.11698 | 32937 ft | 460 kts | 29° |
| 2026-04-26 08:11 | 44.62114 | -7.09447 | 33423 ft | 458 kts | 29° |
| 2026-04-26 08:12 | 44.64866 | -7.07205 | 33909 ft | 456 kts | 29° |
| 2026-04-26 08:12 | 44.67601 | -7.04975 | 34383 ft | 454 kts | 28° |
| 2026-04-26 08:12 | 44.70328 | -7.02753 | 34778 ft | 453 kts | 28° |
| 2026-04-26 08:12 | 44.73054 | -7.00530 | 35135 ft | 452 kts | 28° |
| 2026-04-26 08:13 | 44.75770 | -6.98313 | 35456 ft | 452 kts | 28° |
| 2026-04-26 08:13 | 44.78460 | -6.96120 | 35774 ft | 452 kts | 28° |
| 2026-04-26 08:13 | 44.81215 | -6.93872 | 36065 ft | 453 kts | 28° |
| 2026-04-26 08:13 | 44.83941 | -6.91642 | 36345 ft | 453 kts | 28° |
| 2026-04-26 08:14 | 44.86662 | -6.89410 | 36635 ft | 453 kts | 28° |
| 2026-04-26 08:14 | 44.89390 | -6.87170 | 36921 ft | 453 kts | 28° |
| 2026-04-26 08:14 | 44.92078 | -6.84959 | 37199 ft | 453 kts | 29° |
| 2026-04-26 08:14 | 44.94833 | -6.82692 | 37535 ft | 452 kts | 29° |
| 2026-04-26 08:15 | 44.97509 | -6.80489 | 37827 ft | 451 kts | 28° |
| 2026-04-26 08:15 | 45.00221 | -6.78257 | 38105 ft | 451 kts | 28° |
| 2026-04-26 08:15 | 45.02939 | -6.76013 | 38234 ft | 454 kts | 28° |
| 2026-04-26 08:15 | 45.05677 | -6.73748 | 38242 ft | 458 kts | 28° |
| 2026-04-26 08:16 | 45.11185 | -6.69191 | 38241 ft | 459 kts | 28° |
| 2026-04-26 08:16 | 45.15803 | -6.65360 | 38242 ft | 459 kts | 29° |
| 2026-04-26 08:17 | 45.21313 | -6.60771 | 38247 ft | 460 kts | 28° |
| 2026-04-26 08:17 | 45.26800 | -6.56203 | 38243 ft | 461 kts | 29° |
| 2026-04-26 08:18 | 45.32332 | -6.51597 | 38258 ft | 461 kts | 29° |
| 2026-04-26 08:18 | 45.37854 | -6.46982 | 38264 ft | 460 kts | 29° |
| 2026-04-26 08:19 | 45.43370 | -6.42352 | 38265 ft | 460 kts | 29° |
| 2026-04-26 08:19 | 45.48887 | -6.37709 | 38260 ft | 461 kts | 29° |
| 2026-04-26 08:20 | 45.54408 | -6.33055 | 38263 ft | 461 kts | 29° |
| 2026-04-26 08:20 | 45.59927 | -6.28393 | 38262 ft | 461 kts | 29° |
| 2026-04-26 08:21 | 45.65446 | -6.23725 | 38262 ft | 461 kts | 29° |
| 2026-04-26 08:21 | 45.70969 | -6.19036 | 38267 ft | 461 kts | 29° |
| 2026-04-26 08:22 | 45.76483 | -6.14349 | 38262 ft | 461 kts | 29° |
| 2026-04-26 08:22 | 45.81989 | -6.09658 | 38275 ft | 461 kts | 29° |
| 2026-04-26 08:23 | 45.87493 | -6.04934 | 38268 ft | 461 kts | 29° |
| 2026-04-26 08:23 | 45.93007 | -6.00208 | 38259 ft | 461 kts | 29° |
| 2026-04-26 08:24 | 45.98527 | -5.95478 | 38260 ft | 462 kts | 29° |
| 2026-04-26 08:24 | 46.04040 | -5.90738 | 38271 ft | 462 kts | 29° |
| 2026-04-26 08:25 | 46.09545 | -5.85994 | 38265 ft | 462 kts | 29° |
| 2026-04-26 08:25 | 46.15052 | -5.81232 | 38262 ft | 461 kts | 29° |
| 2026-04-26 08:26 | 46.20556 | -5.76460 | 38261 ft | 461 kts | 29° |
| 2026-04-26 08:26 | 46.26058 | -5.71677 | 38263 ft | 461 kts | 29° |
| 2026-04-26 08:27 | 46.31522 | -5.66916 | 38262 ft | 462 kts | 29° |
| 2026-04-26 08:27 | 46.37024 | -5.62119 | 38261 ft | 462 kts | 29° |
| 2026-04-26 08:28 | 46.42523 | -5.57312 | 38264 ft | 461 kts | 30° |
| 2026-04-26 08:28 | 46.48009 | -5.52497 | 38271 ft | 461 kts | 30° |
| 2026-04-26 08:29 | 46.53504 | -5.47662 | 38261 ft | 461 kts | 29° |
| 2026-04-26 08:29 | 46.58986 | -5.42831 | 38259 ft | 461 kts | 30° |
| 2026-04-26 08:30 | 46.64421 | -5.37854 | 38261 ft | 462 kts | 32° |
| 2026-04-26 08:30 | 46.69697 | -5.32502 | 38257 ft | 462 kts | 34° |
| 2026-04-26 08:31 | 46.74929 | -5.27031 | 38258 ft | 462 kts | 34° |
| 2026-04-26 08:31 | 46.80179 | -5.21626 | 38261 ft | 462 kts | 33° |
| 2026-04-26 08:32 | 46.85458 | -5.16269 | 38261 ft | 462 kts | 33° |
| 2026-04-26 08:32 | 46.90736 | -5.10921 | 38258 ft | 462 kts | 33° |
| 2026-04-26 08:33 | 46.96007 | -5.05545 | 38255 ft | 462 kts | 33° |
| 2026-04-26 08:33 | 47.01264 | -5.00143 | 38253 ft | 462 kts | 33° |
| 2026-04-26 08:34 | 47.06522 | -4.94730 | 38253 ft | 462 kts | 33° |
| 2026-04-26 08:34 | 47.11780 | -4.89312 | 38257 ft | 462 kts | 33° |
| 2026-04-26 08:35 | 47.17030 | -4.83884 | 38253 ft | 462 kts | 33° |
| 2026-04-26 08:35 | 47.22277 | -4.78442 | 38249 ft | 461 kts | 33° |
| 2026-04-26 08:36 | 47.27491 | -4.73033 | 38246 ft | 461 kts | 33° |
| 2026-04-26 08:36 | 47.32731 | -4.67579 | 38247 ft | 461 kts | 33° |
| 2026-04-26 08:37 | 47.37971 | -4.62107 | 38243 ft | 461 kts | 33° |
| 2026-04-26 08:37 | 47.43212 | -4.56627 | 38241 ft | 461 kts | 33° |
| 2026-04-26 08:38 | 47.48451 | -4.51146 | 38239 ft | 462 kts | 33° |
| 2026-04-26 08:38 | 47.53684 | -4.45646 | 38243 ft | 462 kts | 33° |
| 2026-04-26 08:39 | 47.58918 | -4.40123 | 38245 ft | 462 kts | 33° |
| 2026-04-26 08:39 | 47.64155 | -4.34600 | 38240 ft | 462 kts | 33° |
| 2026-04-26 08:40 | 47.69389 | -4.29063 | 38234 ft | 462 kts | 34° |
| 2026-04-26 08:40 | 47.74615 | -4.23502 | 38245 ft | 462 kts | 34° |
| 2026-04-26 08:41 | 47.79842 | -4.17935 | 38239 ft | 462 kts | 33° |
| 2026-04-26 08:41 | 47.85069 | -4.12357 | 38236 ft | 462 kts | 33° |
| 2026-04-26 08:42 | 47.90291 | -4.06765 | 38237 ft | 462 kts | 33° |
| 2026-04-26 08:42 | 47.95518 | -4.01170 | 38246 ft | 462 kts | 33° |
| 2026-04-26 08:43 | 48.00744 | -3.95563 | 38239 ft | 463 kts | 34° |
| 2026-04-26 08:43 | 48.05965 | -3.89933 | 38237 ft | 463 kts | 34° |
| 2026-04-26 08:44 | 48.11178 | -3.84284 | 38236 ft | 463 kts | 34° |
| 2026-04-26 08:44 | 48.16357 | -3.78663 | 38249 ft | 463 kts | 33° |
| 2026-04-26 08:45 | 48.21571 | -3.73001 | 38247 ft | 463 kts | 33° |
| 2026-04-26 08:45 | 48.26777 | -3.67336 | 38249 ft | 463 kts | 33° |
| 2026-04-26 08:46 | 48.31985 | -3.61651 | 38250 ft | 463 kts | 34° |
| 2026-04-26 08:46 | 48.37217 | -3.56016 | 38250 ft | 462 kts | 32° |
| 2026-04-26 08:47 | 48.42518 | -3.50544 | 38258 ft | 462 kts | 32° |
| 2026-04-26 08:47 | 48.47821 | -3.45085 | 38256 ft | 461 kts | 32° |
| 2026-04-26 08:48 | 48.53093 | -3.39569 | 38264 ft | 461 kts | 32° |
| 2026-04-26 08:48 | 48.58346 | -3.34030 | 38266 ft | 460 kts | 32° |
| 2026-04-26 08:49 | 48.63596 | -3.28499 | 38286 ft | 460 kts | 32° |
| 2026-04-26 08:49 | 48.68841 | -3.22969 | 38275 ft | 459 kts | 32° |
| 2026-04-26 08:50 | 48.74076 | -3.17422 | 38265 ft | 459 kts | 32° |
| 2026-04-26 08:50 | 48.79303 | -3.11873 | 38264 ft | 459 kts | 32° |
| 2026-04-26 08:51 | 48.87140 | -3.03516 | 38270 ft | 459 kts | 32° |
| 2026-04-26 08:52 | 48.92365 | -2.97949 | 38270 ft | 458 kts | 32° |
| 2026-04-26 08:52 | 48.97584 | -2.92370 | 38269 ft | 458 kts | 32° |
| 2026-04-26 08:53 | 49.02793 | -2.86770 | 38274 ft | 458 kts | 33° |
| 2026-04-26 08:53 | 49.07998 | -2.81157 | 38295 ft | 458 kts | 33° |
| 2026-04-26 08:54 | 49.13166 | -2.75571 | 38271 ft | 458 kts | 33° |
| 2026-04-26 08:54 | 49.18363 | -2.69948 | 38271 ft | 458 kts | 33° |
| 2026-04-26 08:55 | 49.23560 | -2.64300 | 38268 ft | 458 kts | 32° |
| 2026-04-26 08:55 | 49.28754 | -2.58650 | 38270 ft | 458 kts | 32° |
| 2026-04-26 08:56 | 49.33943 | -2.52999 | 38267 ft | 457 kts | 32° |
| 2026-04-26 08:56 | 49.39120 | -2.47329 | 38267 ft | 457 kts | 33° |
| 2026-04-26 08:57 | 49.44301 | -2.41646 | 38267 ft | 457 kts | 33° |
| 2026-04-26 08:57 | 49.49473 | -2.35969 | 38271 ft | 457 kts | 33° |
| 2026-04-26 08:58 | 49.54641 | -2.30267 | 38299 ft | 457 kts | 33° |
| 2026-04-26 08:58 | 49.59805 | -2.24544 | 38294 ft | 457 kts | 33° |
| 2026-04-26 08:59 | 49.64965 | -2.18823 | 38299 ft | 457 kts | 33° |
| 2026-04-26 08:59 | 49.70132 | -2.13150 | 38299 ft | 454 kts | 28° |
| 2026-04-26 09:00 | 49.75842 | -2.09270 | 38301 ft | 445 kts | 11° |
| 2026-04-26 09:00 | 49.78852 | -2.08193 | 38112 ft | 445 kts | 9° |
| 2026-04-26 09:00 | 49.81868 | -2.07118 | 37832 ft | 445 kts | 9° |
| 2026-04-26 09:00 | 49.84888 | -2.06022 | 37559 ft | 445 kts | 10° |
| 2026-04-26 09:01 | 49.87904 | -2.04914 | 37290 ft | 446 kts | 10° |
| 2026-04-26 09:01 | 49.90921 | -2.03806 | 37023 ft | 446 kts | 9° |
| 2026-04-26 09:01 | 49.93945 | -2.02694 | 36732 ft | 447 kts | 9° |
| 2026-04-26 09:01 | 49.96964 | -2.01483 | 36036 ft | 452 kts | 15° |
| 2026-04-26 09:02 | 49.99896 | -1.99612 | 35236 ft | 460 kts | 24° |
| 2026-04-26 09:02 | 50.02644 | -1.96990 | 34418 ft | 469 kts | 34° |
| 2026-04-26 09:02 | 50.05198 | -1.93783 | 33677 ft | 471 kts | 37° |
| 2026-04-26 09:02 | 50.07713 | -1.90561 | 33191 ft | 466 kts | 37° |
| 2026-04-26 09:03 | 50.10209 | -1.87372 | 32629 ft | 463 kts | 37° |
| 2026-04-26 09:03 | 50.12691 | -1.84200 | 32082 ft | 460 kts | 37° |
| 2026-04-26 09:03 | 50.15155 | -1.81052 | 31549 ft | 456 kts | 37° |
| 2026-04-26 09:03 | 50.16779 | -1.78981 | 31196 ft | 454 kts | 37° |
| 2026-04-26 09:04 | 50.19215 | -1.75874 | 30673 ft | 451 kts | 37° |
| 2026-04-26 09:04 | 50.21631 | -1.72777 | 30091 ft | 448 kts | 37° |
| 2026-04-26 09:04 | 50.24021 | -1.69697 | 29567 ft | 443 kts | 37° |
| 2026-04-26 09:04 | 50.26382 | -1.66648 | 29048 ft | 438 kts | 37° |
| 2026-04-26 09:05 | 50.28715 | -1.63631 | 28538 ft | 433 kts | 37° |
| 2026-04-26 09:05 | 50.31021 | -1.60651 | 28035 ft | 429 kts | 37° |
| 2026-04-26 09:05 | 50.33312 | -1.57696 | 27552 ft | 424 kts | 37° |
| 2026-04-26 09:05 | 50.35581 | -1.54767 | 27069 ft | 421 kts | 37° |
| 2026-04-26 09:06 | 50.37828 | -1.51862 | 26613 ft | 417 kts | 37° |
| 2026-04-26 09:06 | 50.40053 | -1.48973 | 26151 ft | 414 kts | 38° |
| 2026-04-26 09:06 | 50.42259 | -1.46101 | 25723 ft | 411 kts | 38° |
| 2026-04-26 09:06 | 50.44449 | -1.43246 | 25282 ft | 408 kts | 38° |
| 2026-04-26 09:07 | 50.46627 | -1.40411 | 24855 ft | 406 kts | 38° |
| 2026-04-26 09:07 | 50.48793 | -1.37591 | 24424 ft | 403 kts | 37° |
| 2026-04-26 09:07 | 50.50944 | -1.34785 | 23996 ft | 401 kts | 37° |
| 2026-04-26 09:07 | 50.53053 | -1.32025 | 23496 ft | 398 kts | 38° |
| 2026-04-26 09:08 | 50.55170 | -1.29249 | 23077 ft | 394 kts | 38° |
| 2026-04-26 09:08 | 50.57266 | -1.26500 | 22625 ft | 390 kts | 38° |
| 2026-04-26 09:08 | 50.59339 | -1.23783 | 22183 ft | 387 kts | 38° |
| 2026-04-26 09:08 | 50.61398 | -1.21082 | 21722 ft | 384 kts | 38° |
| 2026-04-26 09:09 | 50.63440 | -1.18394 | 21266 ft | 381 kts | 38° |
| 2026-04-26 09:09 | 50.65469 | -1.15723 | 20802 ft | 379 kts | 38° |
| 2026-04-26 09:09 | 50.67484 | -1.13068 | 20326 ft | 377 kts | 39° |
| 2026-04-26 09:09 | 50.69490 | -1.10418 | 19854 ft | 376 kts | 39° |
| 2026-04-26 09:10 | 50.71494 | -1.07772 | 19386 ft | 374 kts | 39° |
| 2026-04-26 09:10 | 50.73488 | -1.05135 | 18899 ft | 373 kts | 39° |
| 2026-04-26 09:10 | 50.75474 | -1.02502 | 18395 ft | 372 kts | 39° |
| 2026-04-26 09:10 | 50.77448 | -0.99883 | 17899 ft | 370 kts | 39° |
| 2026-04-26 09:11 | 50.79478 | -0.97410 | 17421 ft | 366 kts | 31° |
| 2026-04-26 09:11 | 50.81763 | -0.95703 | 16949 ft | 361 kts | 17° |
| 2026-04-26 09:11 | 50.84200 | -0.94896 | 16473 ft | 357 kts | 3° |
| 2026-04-26 09:11 | 50.86662 | -0.94987 | 15995 ft | 352 kts | 350° |
| 2026-04-26 09:12 | 50.89072 | -0.95585 | 15526 ft | 350 kts | 349° |
| 2026-04-26 09:12 | 50.91475 | -0.96185 | 15052 ft | 349 kts | 349° |
| 2026-04-26 09:12 | 50.93871 | -0.96783 | 14579 ft | 348 kts | 349° |
| 2026-04-26 09:12 | 50.96261 | -0.97358 | 14105 ft | 347 kts | 352° |
| 2026-04-26 09:13 | 50.98674 | -0.97242 | 13593 ft | 348 kts | 9° |
| 2026-04-26 09:13 | 51.00968 | -0.96083 | 13133 ft | 347 kts | 25° |
| 2026-04-26 09:13 | 51.02957 | -0.93990 | 12780 ft | 342 kts | 41° |
| 2026-04-26 09:13 | 51.04581 | -0.91256 | 12413 ft | 338 kts | 48° |
| 2026-04-26 09:14 | 51.06135 | -0.88482 | 12041 ft | 334 kts | 48° |
| 2026-04-26 09:14 | 51.07671 | -0.85744 | 11682 ft | 331 kts | 48° |
| 2026-04-26 09:14 | 51.09198 | -0.83026 | 11315 ft | 327 kts | 48° |
| 2026-04-26 09:14 | 51.10707 | -0.80339 | 10961 ft | 324 kts | 48° |
| 2026-04-26 09:15 | 51.12203 | -0.77674 | 10626 ft | 321 kts | 48° |
| 2026-04-26 09:15 | 51.13660 | -0.75071 | 10499 ft | 310 kts | 48° |
| 2026-04-26 09:15 | 51.15070 | -0.72545 | 10364 ft | 301 kts | 48° |
| 2026-04-26 09:15 | 51.16427 | -0.70109 | 10101 ft | 296 kts | 48° |
| 2026-04-26 09:16 | 51.17807 | -0.67630 | 9767 ft | 294 kts | 48° |
| 2026-04-26 09:16 | 51.19153 | -0.65209 | 9461 ft | 291 kts | 49° |
| 2026-04-26 09:16 | 51.20492 | -0.62798 | 9148 ft | 289 kts | 49° |
| 2026-04-26 09:16 | 51.21818 | -0.60413 | 8829 ft | 287 kts | 49° |
| 2026-04-26 09:17 | 51.23137 | -0.58044 | 8518 ft | 284 kts | 49° |
| 2026-04-26 09:17 | 51.24445 | -0.55689 | 8206 ft | 283 kts | 49° |
| 2026-04-26 09:17 | 51.25744 | -0.53343 | 7890 ft | 281 kts | 49° |
| 2026-04-26 09:17 | 51.27029 | -0.51016 | 7612 ft | 278 kts | 49° |
| 2026-04-26 09:18 | 51.28426 | -0.48922 | 7482 ft | 277 kts | 31° |
| 2026-04-26 09:18 | 51.30244 | -0.47979 | 7360 ft | 278 kts | 3° |
| 2026-04-26 09:18 | 51.32125 | -0.48496 | 7326 ft | 278 kts | 335° |
| 2026-04-26 09:18 | 51.32686 | -0.48975 | 7328 ft | 278 kts | 326° |
| 2026-04-26 09:19 | 51.33998 | -0.51158 | 7348 ft | 278 kts | 298° |
| 2026-04-26 09:19 | 51.34723 | -0.54056 | 7261 ft | 276 kts | 287° |
| 2026-04-26 09:19 | 51.35281 | -0.56945 | 6940 ft | 276 kts | 286° |
| 2026-04-26 09:19 | 51.35827 | -0.59878 | 6616 ft | 274 kts | 286° |
| 2026-04-26 09:20 | 51.36366 | -0.62804 | 6282 ft | 274 kts | 286° |
| 2026-04-26 09:20 | 51.36904 | -0.65713 | 5794 ft | 272 kts | 286° |
| 2026-04-26 09:20 | 51.37434 | -0.68543 | 5481 ft | 262 kts | 286° |
| 2026-04-26 09:20 | 51.37955 | -0.71301 | 5120 ft | 255 kts | 286° |
| 2026-04-26 09:21 | 51.38459 | -0.73983 | 4738 ft | 249 kts | 286° |
| 2026-04-26 09:21 | 51.38949 | -0.76594 | 4619 ft | 243 kts | 286° |
| 2026-04-26 09:21 | 51.39683 | -0.79017 | 4478 ft | 243 kts | 312° |
| 2026-04-26 09:21 | 51.41055 | -0.80512 | 4353 ft | 239 kts | 345° |
| 2026-04-26 09:22 | 51.42686 | -0.80893 | 4183 ft | 237 kts | 359° |
| 2026-04-26 09:22 | 51.44303 | -0.80671 | 4037 ft | 232 kts | 23° |
| 2026-04-26 09:22 | 51.45664 | -0.79340 | 3875 ft | 229 kts | 40° |
| 2026-04-26 09:22 | 51.46775 | -0.77590 | 3636 ft | 218 kts | 57° |
| 2026-04-26 09:23 | 51.47427 | -0.75500 | 3414 ft | 204 kts | 76° |
| 2026-04-26 09:23 | 51.47622 | -0.73328 | 3177 ft | 192 kts | 91° |
| 2026-04-26 09:23 | 51.47633 | -0.71220 | 2925 ft | 186 kts | 91° |
| 2026-04-26 09:23 | 51.47645 | -0.69163 | 2704 ft | 183 kts | 91° |
| 2026-04-26 09:24 | 51.47657 | -0.67143 | 2446 ft | 179 kts | 91° |
| 2026-04-26 09:24 | 51.47668 | -0.65170 | 2202 ft | 176 kts | 92° |
| 2026-04-26 09:24 | 51.47679 | -0.63241 | 1961 ft | 169 kts | 92° |
| 2026-04-26 09:24 | 51.47689 | -0.61411 | 1736 ft | 160 kts | 92° |
| 2026-04-26 09:25 | 51.47698 | -0.59645 | 1516 ft | 156 kts | 92° |
| 2026-04-26 09:25 | 51.47706 | -0.57999 | 1320 ft | 140 kts | 91° |
| 2026-04-26 09:25 | 51.47713 | -0.56493 | 1136 ft | 131 kts | 91° |
| 2026-04-26 09:25 | 51.47718 | -0.55034 | 930 ft | 130 kts | 90° |
| 2026-04-26 09:26 | 51.47717 | -0.53590 | 787 ft | 130 kts | 90° |
| 2026-04-26 09:26 | 51.47730 | -0.52134 | 606 ft | 129 kts | 90° |
| 2026-04-26 09:26 | 51.47737 | -0.50697 | 406 ft | 129 kts | 90° |
| 2026-04-26 09:26 | 51.47747 | -0.49266 | 237 ft | 128 kts | 89° |
| 2026-04-26 09:27 | 51.47756 | -0.47852 | 97 ft | 122 kts | 90° |
| 2026-04-26 09:27 | 51.47758 | -0.46685 | 89 ft | 85 kts | 90° |
| 2026-04-26 09:27 | 51.47761 | -0.45913 | 84 ft | 57 kts | 90° |
| 2026-04-26 09:27 | 51.47762 | -0.45389 | 86 ft | 39 kts | 90° |
| 2026-04-26 09:28 | 51.47694 | -0.45175 | 87 ft | 17 kts | 167° |
| 2026-04-26 09:28 | 51.47631 | -0.45175 | 86 ft | 0 kts | 180° |
| 2026-04-26 09:29 | 51.47619 | -0.45174 | 86 ft | 5 kts | 179° |
| 2026-04-26 09:29 | 51.47572 | -0.45174 | 86 ft | 6 kts | 180° |
| 2026-04-26 09:29 | 51.47561 | -0.45174 | 86 ft | 4 kts | 180° |
| 2026-04-26 09:29 | 51.47517 | -0.45138 | 88 ft | 11 kts | 126° |
| 2026-04-26 09:30 | 51.47510 | -0.45005 | 91 ft | 14 kts | 89° |
| 2026-04-26 09:30 | 51.47510 | -0.44835 | 86 ft | 17 kts | 89° |
| 2026-04-26 09:30 | 51.47506 | -0.44626 | 90 ft | 19 kts | 98° |
| 2026-04-26 09:30 | 51.47504 | -0.44403 | 89 ft | 21 kts | 89° |
| 2026-04-26 09:31 | 51.47504 | -0.44220 | 87 ft | 14 kts | 90° |
| 2026-04-26 09:31 | 51.47478 | -0.44067 | 88 ft | 16 kts | 152° |
| 2026-04-26 09:31 | 51.47357 | -0.44058 | 86 ft | 19 kts | 179° |
| 2026-04-26 09:31 | 51.47213 | -0.44057 | 86 ft | 22 kts | 179° |
| 2026-04-26 09:32 | 51.47057 | -0.44056 | 88 ft | 22 kts | 180° |
| 2026-04-26 09:32 | 51.46912 | -0.44055 | 90 ft | 22 kts | 180° |
| 2026-04-26 09:32 | 51.46772 | -0.44054 | 90 ft | 20 kts | 179° |
| 2026-04-26 09:32 | 51.46648 | -0.44053 | 89 ft | 13 kts | 180° |
| 2026-04-26 09:33 | 51.46608 | -0.44053 | 88 ft | 0 kts | 180° |
| 2026-04-26 09:36 | 51.46601 | -0.44053 | 89 ft | 4 kts | 180° |
| 2026-04-26 09:37 | 51.46546 | -0.44053 | 89 ft | 11 kts | 180° |
| 2026-04-26 09:37 | 51.46466 | -0.44063 | 85 ft | 12 kts | 198° |
| 2026-04-26 09:37 | 51.46399 | -0.44120 | 87 ft | 9 kts | 210° |
| 2026-04-26 09:37 | 51.46366 | -0.44150 | 86 ft | 0 kts | 210° |
| 2026-04-26 09:38 | 51.46361 | -0.44155 | 86 ft | 2 kts | 210° |
| 2026-04-26 09:38 | 51.46338 | -0.44192 | 89 ft | 8 kts | 238° |
| 2026-04-26 09:38 | 51.46327 | -0.44306 | 87 ft | 13 kts | 269° |
| 2026-04-26 09:38 | 51.46326 | -0.44478 | 86 ft | 17 kts | 269° |
| 2026-04-26 09:39 | 51.46311 | -0.44651 | 90 ft | 15 kts | 230° |
| 2026-04-26 09:39 | 51.46233 | -0.44767 | 88 ft | 16 kts | 221° |
| 2026-04-26 09:39 | 51.46183 | -0.44819 | 90 ft | 6 kts | 172° |
| 2026-04-26 09:39 | 51.46149 | -0.44764 | 88 ft | 8 kts | 131° |
| 2026-04-26 09:40 | 51.46125 | -0.44720 | 91 ft | 3 kts | 131° |
| 2026-04-26 09:40 | 51.46120 | -0.44711 | 89 ft | 0 kts | 131° |